createdAt,value
2022-12-18T00:11:22.650Z,99.7
2022-12-18T00:25:56.266Z,99.1
2022-12-18T00:40:28.601Z,100
2022-12-18T00:55:06.801Z,99.2
2022-12-18T01:09:36.214Z,100
2022-12-18T01:24:07.708Z,99.6
2022-12-18T01:38:40.288Z,99.8
2022-12-18T01:53:13.499Z,100
2022-12-18T02:07:47.148Z,100
2022-12-18T02:22:22.027Z,99.2
2022-12-18T02:36:54.305Z,99.2
2022-12-18T02:51:28.579Z,100
2022-12-18T03:06:00.281Z,99.4
2022-12-18T03:20:34.529Z,100
2022-12-18T03:35:06.510Z,100
2022-12-18T03:49:39.925Z,100
2022-12-18T04:04:10.177Z,100
2022-12-18T04:18:48.605Z,99.6
2022-12-18T04:33:19.052Z,100
2022-12-18T04:47:52.702Z,100
2022-12-18T05:02:31.421Z,100
2022-12-18T05:17:01.566Z,100
2022-12-18T05:31:40.030Z,100
2022-12-18T05:46:08.501Z,100
2022-12-18T06:00:41.187Z,100
2022-12-18T06:15:15.145Z,100
2022-12-18T06:29:48.486Z,98.8
2022-12-18T06:44:21.286Z,99.7
2022-12-18T06:58:54.336Z,97.8
2022-12-18T07:13:29.990Z,97.4
2022-12-18T07:28:00.149Z,98.8
2022-12-18T07:42:36.203Z,98.5
2022-12-18T07:57:48.737Z,99.5
2022-12-18T08:12:09.509Z,97.3
2022-12-18T08:27:13.436Z,93.6
2022-12-18T08:41:45.474Z,91.4
2022-12-18T08:56:18.121Z,89.8
2022-12-18T09:10:57.344Z,81.4
2022-12-18T09:25:34.789Z,78.8
2022-12-18T09:40:11.244Z,79.9
2022-12-18T09:54:43.101Z,79.2
2022-12-18T10:09:16.258Z,76.2
2022-12-18T10:23:50.381Z,76.8
2022-12-18T10:38:25.031Z,75.4
2022-12-18T10:52:58.433Z,72.5
2022-12-18T11:07:38.098Z,72.7
2022-12-18T11:22:09.068Z,73.3
2022-12-18T11:36:43.654Z,71.8
2022-12-18T11:51:18.912Z,70.8
2022-12-18T12:05:49.957Z,70
2022-12-18T12:20:24.320Z,71.4
2022-12-18T12:35:06.146Z,71.7
2022-12-18T13:13:44.290Z,72.4
2022-12-18T13:27:39.368Z,73.4
2022-12-18T13:42:14.659Z,75.8
2022-12-18T13:56:48.695Z,75.4
2022-12-18T14:11:22.258Z,76.9
2022-12-18T14:25:55.048Z,77.1
2022-12-18T14:40:27.821Z,78.4
2022-12-18T14:55:00.716Z,78.8
2022-12-18T15:09:33.294Z,78.9
2022-12-18T15:24:05.655Z,78
2022-12-18T15:38:41.370Z,78.2
2022-12-18T15:53:12.529Z,78.1
2022-12-18T16:07:46.061Z,78.4
2022-12-18T16:22:21.951Z,80.6
2022-12-18T16:36:53.922Z,81.3
2022-12-18T16:51:26.701Z,82.1
2022-12-18T17:06:00.035Z,84.8
2022-12-18T17:20:32.941Z,85
2022-12-18T17:35:07.856Z,85.7
2022-12-18T17:49:42.684Z,87.1
2022-12-18T18:04:16.958Z,87.1
2022-12-18T18:18:48.653Z,88.5
2022-12-18T18:33:23.297Z,89.7
2022-12-18T18:47:58.654Z,89.6
2022-12-18T19:02:30.571Z,89.1
2022-12-18T19:17:06.809Z,88.1
2022-12-18T19:31:37.864Z,88.4
2022-12-18T19:46:11.938Z,88.6
2022-12-18T20:00:44.507Z,87.7
2022-12-18T20:15:18.070Z,88
2022-12-18T20:29:51.512Z,88.3
2022-12-18T20:44:26.867Z,87.9
2022-12-18T20:59:00.659Z,87.7
2022-12-18T21:13:34.432Z,88.2
2022-12-18T21:28:07.906Z,90
2022-12-18T21:42:42.920Z,91
2022-12-18T21:57:15.749Z,90.6
2022-12-18T22:11:48.718Z,92.5
2022-12-18T22:26:22.009Z,94.6
2022-12-18T22:40:55.830Z,99.3
2022-12-18T22:55:29.446Z,100
2022-12-18T23:10:03.171Z,100
2022-12-18T23:24:36.634Z,100
2022-12-18T23:39:12.525Z,100
2022-12-18T23:53:55.623Z,100
